createdAt,value
2023-03-17T00:01:47.977Z,74.69
2023-03-17T00:04:16.099Z,75.47
2023-03-17T00:06:44.040Z,75.85
2023-03-17T00:09:14.752Z,75.84
2023-03-17T00:11:44.883Z,76.12
2023-03-17T00:14:13.194Z,76.12
2023-03-17T00:16:43.818Z,76.79
2023-03-17T00:19:16.610Z,75.87
2023-03-17T00:21:45.235Z,74.93
2023-03-17T00:24:15.243Z,75.51
2023-03-17T00:26:44.740Z,74.86
2023-03-17T00:29:13.350Z,74.28
2023-03-17T00:31:41.398Z,74.30
2023-03-17T00:34:13.161Z,74.99
2023-03-17T00:36:41.923Z,74.53
2023-03-17T00:41:42.396Z,74.22
2023-03-17T00:44:11.780Z,74.11
2023-03-17T00:46:41.985Z,73.97
2023-03-17T00:51:44.820Z,74.03
2023-03-17T00:54:13.737Z,74.59
2023-03-17T00:56:43.835Z,75.44
2023-03-17T00:59:20.750Z,76.16
2023-03-17T01:01:49.306Z,77.01
2023-03-17T01:04:17.362Z,77.10
2023-03-17T01:06:47.930Z,76.92
2023-03-17T01:09:18.576Z,76.75
2023-03-17T01:11:49.749Z,75.76
2023-03-17T01:14:19.274Z,76.71
2023-03-17T01:16:48.074Z,75.82
2023-03-17T01:19:16.987Z,75.82
2023-03-17T01:21:45.656Z,77.19
2023-03-17T01:24:14.515Z,76.76
2023-03-17T01:26:42.424Z,76.40
2023-03-17T01:29:10.456Z,76.88
2023-03-17T01:31:40.332Z,77.53
2023-03-17T01:34:08.330Z,77.59
2023-03-17T01:36:37.581Z,77.92
2023-03-17T01:39:07.397Z,78.43
2023-03-17T01:41:37.758Z,77.95
2023-03-17T01:44:07.195Z,77.75
2023-03-17T01:46:36.262Z,78.82
2023-03-17T01:49:13.148Z,79.05
2023-03-17T01:51:50.602Z,78.54
2023-03-17T01:54:24.302Z,79.10
2023-03-17T01:56:55.272Z,77.93
2023-03-17T01:59:28.716Z,77.90
2023-03-17T02:02:02.547Z,78.80
2023-03-17T02:04:32.898Z,79.72
2023-03-17T02:07:05.071Z,78.30
2023-03-17T02:09:35.209Z,78.85
2023-03-17T02:12:05.350Z,79.36
2023-03-17T02:14:34.120Z,79.42
2023-03-17T02:17:03.963Z,78.92
2023-03-17T02:19:35.986Z,78.57
2023-03-17T02:22:05.566Z,79.36
2023-03-17T02:24:38.704Z,80.68
2023-03-17T02:27:11.821Z,79.73
2023-03-17T02:29:40.483Z,79.87
2023-03-17T02:32:11.003Z,80.13
2023-03-17T02:34:39.272Z,80.21
2023-03-17T02:37:09.435Z,80.29
2023-03-17T02:39:37.975Z,80.66
2023-03-17T02:42:06.837Z,80.74
2023-03-17T02:44:35.483Z,80.72
2023-03-17T02:47:05.052Z,80.57
2023-03-17T02:49:34.027Z,81.31
2023-03-17T02:52:02.662Z,81.06
2023-03-17T02:54:32.414Z,80.69
2023-03-17T02:57:00.734Z,80.37
2023-03-17T02:59:29.048Z,80.76
2023-03-17T03:01:58.244Z,81.13
2023-03-17T03:04:27.223Z,81.45
2023-03-17T03:06:57.010Z,81.34
2023-03-17T03:09:25.805Z,80.37
2023-03-17T03:11:55.113Z,80.68
2023-03-17T03:14:23.091Z,80.15
2023-03-17T03:16:52.338Z,80.42
2023-03-17T03:19:20.498Z,80.73
2023-03-17T03:21:48.412Z,80.24
2023-03-17T03:24:17.058Z,79.55
2023-03-17T03:26:45.119Z,80.29
2023-03-17T03:29:14.505Z,80.29
2023-03-17T03:31:42.500Z,80.26
2023-03-17T03:34:10.358Z,80.37
2023-03-17T03:36:38.642Z,80.80
2023-03-17T03:39:06.558Z,80.59
2023-03-17T03:41:34.467Z,80.09
2023-03-17T03:44:02.302Z,80.92
2023-03-17T03:46:31.581Z,81.02
2023-03-17T03:48:59.487Z,81.60
2023-03-17T03:51:27.383Z,81.34
2023-03-17T03:53:55.343Z,81.11
2023-03-17T03:56:23.235Z,81.48
2023-03-17T03:58:51.263Z,81.36
2023-03-17T04:01:19.599Z,81.18
2023-03-17T04:03:48.808Z,81.55
2023-03-17T04:06:17.318Z,81.78
2023-03-17T04:08:45.316Z,81.84
2023-03-17T04:11:13.238Z,81.47
2023-03-17T04:13:41.167Z,81.95
2023-03-17T04:16:10.303Z,82.42
2023-03-17T04:18:38.220Z,80.78
2023-03-17T04:21:08.308Z,81.34
2023-03-17T04:23:36.352Z,81.77
2023-03-17T04:26:04.235Z,82.23
2023-03-17T04:28:32.350Z,83.14
2023-03-17T04:31:00.187Z,82.14
2023-03-17T04:33:28.789Z,82.60
2023-03-17T04:35:56.943Z,82.13
2023-03-17T04:38:26.653Z,82.33
2023-03-17T04:40:54.468Z,82.21
2023-03-17T04:43:22.334Z,82.31
2023-03-17T04:45:50.298Z,83.08
2023-03-17T04:48:18.094Z,82.13
2023-03-17T04:50:47.859Z,83.06
2023-03-17T04:53:15.712Z,83.39
2023-03-17T04:55:45.394Z,83.17
2023-03-17T04:58:18.173Z,83.33
2023-03-17T05:00:55.998Z,83.37
2023-03-17T05:03:27.501Z,83.09
2023-03-17T05:05:56.013Z,82.45
2023-03-17T05:08:24.069Z,83.56
2023-03-17T05:10:53.330Z,83.17
2023-03-17T05:13:21.330Z,83.12
2023-03-17T05:15:49.322Z,83.83
2023-03-17T05:18:17.621Z,82.95
2023-03-17T05:20:45.549Z,83.04
2023-03-17T05:23:14.069Z,83.65
2023-03-17T05:25:42.283Z,84.16
2023-03-17T05:28:11.617Z,83.92
2023-03-17T05:30:39.596Z,83.77
2023-03-17T05:33:07.737Z,84.04
2023-03-17T05:35:35.835Z,83.90
2023-03-17T05:38:03.694Z,83.46
2023-03-17T05:40:32.858Z,83.47
2023-03-17T05:43:00.857Z,83.76
2023-03-17T05:45:30.472Z,83.94
2023-03-17T05:47:58.811Z,83.40
2023-03-17T05:50:27.767Z,81.85
2023-03-17T05:52:55.719Z,81.12
2023-03-17T05:55:23.611Z,82.23
2023-03-17T05:57:51.501Z,81.44
2023-03-17T06:00:21.447Z,82.93
2023-03-17T06:02:50.643Z,82.40
2023-03-17T06:05:18.633Z,81.61
2023-03-17T06:07:54.017Z,79.67
2023-03-17T06:10:23.774Z,80.44
2023-03-17T06:12:51.775Z,81.52
2023-03-17T06:15:19.946Z,81.52
2023-03-17T06:17:48.123Z,81.02
2023-03-17T06:20:17.709Z,81.16
2023-03-17T06:23:02.337Z,81.75
2023-03-17T06:25:31.887Z,81.53
2023-03-17T06:28:02.359Z,81.05
2023-03-17T06:30:30.931Z,81.52
2023-03-17T06:32:58.850Z,79.68
2023-03-17T06:35:28.519Z,79.73
2023-03-17T06:37:56.515Z,78.32
2023-03-17T06:40:24.454Z,77.93
2023-03-17T06:42:53.345Z,76.28
2023-03-17T06:45:21.345Z,75.88
2023-03-17T06:47:49.331Z,75.56
2023-03-17T06:50:17.345Z,74.68
2023-03-17T06:52:47.042Z,74.84
2023-03-17T06:55:15.832Z,73.55
2023-03-17T06:57:44.116Z,72.75
2023-03-17T07:00:14.197Z,72.91
2023-03-17T07:02:43.115Z,71.89
2023-03-17T07:05:12.684Z,70.69
2023-03-17T07:07:41.097Z,71.24
2023-03-17T07:10:13.730Z,72.31
2023-03-17T07:12:41.650Z,69.36
2023-03-17T07:15:12.419Z,69.31
2023-03-17T07:17:40.350Z,68.22
2023-03-17T07:20:09.656Z,67.99
2023-03-17T07:22:37.651Z,68.03
2023-03-17T07:25:06.442Z,66.75
2023-03-17T07:27:35.715Z,65.98
2023-03-17T07:30:04.958Z,64.64
2023-03-17T07:32:33.636Z,65.27
2023-03-17T07:35:01.542Z,63.60
2023-03-17T07:37:29.372Z,62.60
2023-03-17T07:39:57.251Z,64.26
2023-03-17T07:42:25.133Z,62.20
2023-03-17T07:44:54.365Z,61.95
2023-03-17T07:47:22.244Z,61.53
2023-03-17T07:49:50.252Z,61.92
2023-03-17T07:52:18.723Z,60.72
2023-03-17T07:54:46.595Z,61.08
2023-03-17T07:57:16.855Z,57.82
2023-03-17T07:59:44.791Z,59.07
2023-03-17T08:02:17.222Z,58.81
2023-03-17T08:04:45.789Z,59.47
2023-03-17T08:07:14.673Z,59.31
2023-03-17T08:09:42.780Z,59.41
2023-03-17T08:12:11.734Z,59.91
2023-03-17T08:14:39.633Z,56.98
2023-03-17T08:17:07.911Z,57.33
2023-03-17T08:19:37.351Z,55.47
2023-03-17T08:22:05.612Z,56.65
2023-03-17T08:24:33.630Z,55.65
2023-03-17T08:27:02.081Z,55.23
2023-03-17T08:29:30.862Z,55.99
2023-03-17T08:31:58.954Z,56.02
2023-03-17T08:34:27.311Z,54.53
2023-03-17T08:36:56.666Z,55.09
2023-03-17T08:39:24.611Z,53.46
2023-03-17T08:41:52.914Z,53.95
2023-03-17T08:44:21.857Z,54.28
2023-03-17T08:46:50.272Z,53.02
2023-03-17T08:49:18.090Z,53.54
2023-03-17T08:51:46.313Z,52.89
2023-03-17T08:54:15.957Z,51.98
2023-03-17T08:56:43.910Z,51.88
2023-03-17T08:59:12.433Z,52.49
2023-03-17T09:01:41.969Z,53.74
2023-03-17T09:04:11.087Z,53.31
2023-03-17T09:06:44.054Z,53.92
2023-03-17T09:09:18.580Z,53.10
2023-03-17T09:11:46.553Z,54.00
2023-03-17T09:14:15.328Z,53.27
2023-03-17T09:16:43.257Z,52.96
2023-03-17T09:19:11.479Z,54.07
2023-03-17T09:21:39.398Z,54.03
2023-03-17T09:24:07.407Z,53.16
2023-03-17T09:26:37.016Z,54.64
2023-03-17T09:29:05.261Z,53.86
2023-03-17T09:31:33.374Z,53.73
2023-03-17T09:34:01.347Z,53.00
2023-03-17T09:36:29.241Z,53.46
2023-03-17T09:38:57.223Z,52.48
2023-03-17T09:41:40.142Z,53.27
2023-03-17T09:44:17.792Z,52.30
2023-03-17T09:46:52.471Z,52.33
2023-03-17T09:49:22.851Z,51.68
2023-03-17T09:51:51.546Z,51.59
2023-03-17T09:54:26.948Z,49.86
2023-03-17T09:57:02.144Z,50.66
2023-03-17T09:59:33.354Z,50.90
2023-03-17T10:02:01.242Z,49.34
2023-03-17T10:04:29.078Z,49.56
2023-03-17T10:07:03.706Z,50.45
2023-03-17T10:09:37.386Z,49.69
2023-03-17T10:12:11.464Z,48.70
2023-03-17T10:14:51.136Z,48.68
2023-03-17T10:17:21.348Z,48.19
2023-03-17T10:19:58.849Z,48.62
2023-03-17T10:22:31.469Z,46.77
2023-03-17T10:25:05.112Z,46.69
2023-03-17T10:27:38.564Z,45.72
2023-03-17T10:30:14.899Z,45.61
2023-03-17T10:32:44.450Z,45.63
2023-03-17T10:35:12.897Z,45.44
2023-03-17T10:37:43.876Z,44.26
2023-03-17T10:40:22.053Z,44.84
2023-03-17T10:42:54.835Z,46.08
2023-03-17T10:45:30.837Z,44.93
2023-03-17T10:48:00.075Z,44.44
2023-03-17T10:50:32.141Z,46.10
2023-03-17T10:53:02.340Z,45.26
2023-03-17T10:55:33.181Z,43.41
2023-03-17T10:58:06.234Z,43.80
2023-03-17T11:00:36.571Z,45.00
2023-03-17T11:03:12.241Z,43.61
2023-03-17T11:05:41.251Z,43.26
2023-03-17T11:08:15.990Z,43.49
2023-03-17T11:10:44.504Z,43.63
2023-03-17T11:13:17.246Z,43.26
2023-03-17T11:15:54.353Z,45.36
2023-03-17T11:18:28.577Z,44.30
2023-03-17T11:21:00.908Z,44.85
2023-03-17T11:23:53.953Z,45.12
2023-03-17T11:26:39.168Z,45.37
2023-03-17T11:29:27.613Z,44.83
2023-03-17T11:32:10.779Z,44.84
2023-03-17T11:34:52.135Z,45.24
2023-03-17T11:37:28.820Z,44.69
2023-03-17T11:40:04.176Z,39.89
2023-03-17T11:42:41.816Z,41.74
2023-03-17T11:45:27.307Z,41.82
2023-03-17T11:48:22.325Z,40.39
2023-03-17T11:50:56.482Z,39.66
2023-03-17T11:53:51.888Z,39.22
2023-03-17T11:56:22.014Z,39.14
2023-03-17T11:58:55.008Z,39.60
2023-03-17T12:01:30.149Z,36.93
2023-03-17T12:04:11.481Z,35.71
2023-03-17T12:06:45.953Z,38.38
2023-03-17T12:09:25.845Z,38.32
2023-03-17T12:11:56.932Z,38.86
2023-03-17T12:14:30.109Z,38.56
2023-03-17T12:17:06.166Z,36.62
2023-03-17T12:19:42.491Z,37.78
2023-03-17T12:22:21.178Z,35.21
2023-03-17T12:25:05.823Z,36.82
2023-03-17T12:27:40.017Z,35.49
2023-03-17T12:30:16.663Z,35.70
2023-03-17T12:32:53.585Z,36.32
2023-03-17T12:35:27.803Z,37.51
2023-03-17T12:37:59.385Z,37.06
2023-03-17T12:40:33.667Z,36.96
2023-03-17T12:43:19.620Z,37.35
2023-03-17T12:46:05.980Z,35.92
2023-03-17T12:49:24.375Z,36.55
2023-03-17T12:52:10.261Z,33.83
2023-03-17T12:54:40.783Z,35.20
2023-03-17T12:57:15.597Z,33.23
2023-03-17T12:59:45.773Z,34.13
2023-03-17T13:02:23.733Z,35.70
2023-03-17T13:04:58.040Z,35.46
2023-03-17T13:07:33.232Z,36.06
2023-03-17T13:10:38.297Z,36.82
2023-03-17T13:13:21.545Z,36.59
2023-03-17T13:15:59.066Z,36.82
2023-03-17T13:19:07.530Z,37.13
2023-03-17T13:21:36.510Z,38.44
2023-03-17T13:24:36.161Z,38.47
2023-03-17T13:27:05.579Z,38.10
2023-03-17T13:29:45.657Z,38.67
2023-03-17T13:32:38.337Z,39.24
2023-03-17T13:35:21.409Z,38.51
2023-03-17T13:38:19.033Z,37.62
2023-03-17T13:40:59.669Z,37.90
2023-03-17T13:43:43.578Z,39.46
2023-03-17T13:46:22.271Z,39.62
2023-03-17T13:48:50.812Z,37.39
2023-03-17T13:51:22.520Z,35.94
2023-03-17T13:53:55.516Z,34.20
2023-03-17T13:56:27.834Z,34.15
2023-03-17T13:59:07.337Z,34.79
2023-03-17T14:01:42.383Z,36.23
2023-03-17T14:04:20.253Z,37.95
2023-03-17T14:06:51.456Z,37.74
2023-03-17T14:09:32.029Z,37.95
2023-03-17T14:12:06.621Z,37.25
2023-03-17T14:14:46.569Z,36.57
2023-03-17T14:17:17.627Z,32.69
2023-03-17T14:20:01.570Z,32.59
2023-03-17T14:22:29.584Z,33.29
2023-03-17T14:25:01.753Z,33.29
2023-03-17T14:27:35.030Z,34.65
2023-03-17T14:30:09.692Z,34.18
2023-03-17T14:32:37.677Z,33.87
2023-03-17T14:35:06.995Z,34.29
2023-03-17T14:37:38.572Z,33.74
2023-03-17T14:40:22.449Z,34.12
2023-03-17T14:42:51.872Z,35.81
2023-03-17T14:45:29.808Z,35.00
2023-03-17T14:47:58.200Z,34.18
2023-03-17T14:50:29.354Z,34.86
2023-03-17T14:52:59.468Z,35.81
2023-03-17T14:55:36.911Z,36.02
2023-03-17T14:58:10.981Z,35.51
2023-03-17T15:00:44.879Z,34.52
2023-03-17T15:03:19.940Z,36.22
2023-03-17T15:05:48.541Z,35.78
2023-03-17T15:08:45.919Z,36.12
2023-03-17T15:11:23.445Z,37.02
2023-03-17T15:13:57.003Z,35.70
2023-03-17T15:16:29.446Z,36.66
2023-03-17T15:19:07.924Z,35.82
2023-03-17T15:21:39.779Z,36.61
2023-03-17T15:24:23.110Z,37.69
2023-03-17T15:26:50.950Z,37.43
2023-03-17T15:29:20.124Z,37.89
2023-03-17T15:31:48.004Z,38.34
2023-03-17T15:34:16.450Z,38.46
2023-03-17T15:36:47.487Z,38.60
2023-03-17T15:39:15.434Z,37.90
2023-03-17T15:41:43.315Z,38.56
2023-03-17T15:44:11.821Z,39.62
2023-03-17T15:46:41.745Z,40.25
2023-03-17T15:49:11.927Z,40.26
2023-03-17T15:51:39.917Z,39.46
2023-03-17T15:54:07.804Z,40.03
2023-03-17T15:56:35.672Z,40.43
2023-03-17T15:59:04.659Z,40.42
2023-03-17T16:01:32.668Z,40.83
2023-03-17T16:04:02.060Z,40.80
2023-03-17T16:06:30.129Z,41.37
2023-03-17T16:08:58.157Z,40.91
2023-03-17T16:11:29.479Z,41.23
2023-03-17T16:13:58.309Z,41.92
2023-03-17T16:16:32.230Z,42.02
2023-03-17T16:19:01.718Z,42.05
2023-03-17T16:21:30.688Z,42.15
2023-03-17T16:23:59.204Z,42.76
2023-03-17T16:26:27.329Z,43.64
2023-03-17T16:28:55.416Z,44.12
2023-03-17T16:31:26.677Z,44.36
2023-03-17T16:33:55.584Z,44.41
2023-03-17T16:36:26.043Z,44.18
2023-03-17T16:38:54.387Z,44.81
2023-03-17T16:41:23.806Z,44.91
2023-03-17T16:43:55.306Z,45.81
2023-03-17T16:46:23.735Z,45.63
2023-03-17T16:48:52.298Z,45.64
2023-03-17T16:51:20.809Z,49.29
2023-03-17T16:53:49.978Z,48.15
2023-03-17T16:56:20.116Z,49.17
2023-03-17T16:58:48.425Z,53.60
2023-03-17T17:01:19.215Z,49.93
2023-03-17T17:03:47.791Z,47.68
2023-03-17T17:06:16.254Z,49.75
2023-03-17T17:08:44.436Z,47.89
2023-03-17T17:11:14.575Z,46.58
2023-03-17T17:13:43.886Z,47.74
2023-03-17T17:16:20.044Z,46.07
2023-03-17T17:18:48.348Z,48.32
2023-03-17T17:21:16.662Z,48.02
2023-03-17T17:23:44.813Z,48.54
2023-03-17T17:26:14.165Z,48.74
2023-03-17T17:28:42.781Z,49.60
2023-03-17T17:31:11.793Z,50.37
2023-03-17T17:33:40.259Z,50.90
2023-03-17T17:36:15.041Z,51.60
2023-03-17T17:38:43.164Z,53.16
2023-03-17T17:41:12.392Z,52.77
2023-03-17T17:43:42.029Z,52.30
2023-03-17T17:46:12.890Z,53.45
2023-03-17T17:48:40.976Z,51.16
2023-03-17T17:51:08.817Z,51.92
2023-03-17T17:53:36.860Z,51.66
2023-03-17T17:56:05.700Z,49.59
2023-03-17T17:58:33.656Z,47.78
2023-03-17T18:01:05.431Z,48.22
2023-03-17T18:03:33.876Z,47.62
2023-03-17T18:06:02.100Z,47.63
2023-03-17T18:08:30.084Z,47.19
2023-03-17T18:10:58.020Z,49.10
2023-03-17T18:13:26.318Z,48.83
2023-03-17T18:15:54.197Z,49.68
2023-03-17T18:18:23.459Z,49.93
2023-03-17T18:20:52.517Z,50.19
2023-03-17T18:23:20.655Z,50.77
2023-03-17T18:25:49.018Z,50.26
2023-03-17T18:28:17.167Z,51.36
2023-03-17T18:30:45.961Z,50.51
2023-03-17T18:33:17.726Z,50.11
2023-03-17T18:35:49.054Z,50.29
2023-03-17T18:38:17.078Z,49.95
2023-03-17T18:40:45.808Z,48.72
2023-03-17T18:43:13.756Z,48.61
2023-03-17T18:45:41.652Z,49.02
2023-03-17T18:48:09.550Z,49.46
2023-03-17T18:50:37.448Z,49.21
2023-03-17T18:53:06.889Z,49.61
2023-03-17T18:55:34.869Z,50.41
2023-03-17T18:58:02.674Z,50.89
2023-03-17T19:00:30.741Z,50.35
2023-03-17T19:02:58.871Z,50.53
2023-03-17T19:05:27.711Z,50.29
2023-03-17T19:07:55.631Z,49.86
2023-03-17T19:10:25.970Z,50.71
2023-03-17T19:12:54.865Z,51.12
2023-03-17T19:15:22.755Z,51.71
2023-03-17T19:17:51.062Z,51.13
2023-03-17T19:20:20.071Z,51.40
2023-03-17T19:22:48.217Z,51.63
2023-03-17T19:25:16.581Z,51.32
2023-03-17T19:27:46.019Z,51.41
2023-03-17T19:30:14.955Z,51.35
2023-03-17T19:32:42.972Z,52.05
2023-03-17T19:35:11.645Z,51.43
2023-03-17T19:37:39.599Z,52.41
2023-03-17T19:40:10.260Z,53.39
2023-03-17T19:42:38.237Z,52.35
2023-03-17T19:45:09.141Z,55.03
2023-03-17T19:47:37.024Z,53.31
2023-03-17T19:50:05.246Z,52.39
2023-03-17T19:52:33.090Z,53.50
2023-03-17T19:55:00.937Z,53.81
2023-03-17T19:57:28.897Z,53.00
2023-03-17T19:59:57.324Z,53.59
2023-03-17T20:02:27.035Z,52.88
2023-03-17T20:04:54.939Z,53.27
2023-03-17T20:07:22.915Z,53.92
2023-03-17T20:09:51.009Z,54.81
2023-03-17T20:12:18.862Z,55.45
2023-03-17T20:14:46.789Z,55.67
2023-03-17T20:17:15.330Z,55.07
2023-03-17T20:19:44.957Z,54.69
2023-03-17T20:22:13.213Z,54.86
2023-03-17T20:24:42.458Z,55.04
2023-03-17T20:27:11.279Z,54.95
2023-03-17T20:29:39.671Z,55.17
2023-03-17T20:32:07.530Z,57.02
2023-03-17T20:34:35.894Z,57.62
2023-03-17T20:37:05.836Z,58.70
2023-03-17T20:39:34.038Z,60.66
2023-03-17T20:42:04.225Z,60.76
2023-03-17T20:44:32.173Z,62.50
2023-03-17T20:47:00.007Z,61.49
2023-03-17T20:49:27.913Z,61.61
2023-03-17T20:51:56.094Z,62.32
2023-03-17T20:54:25.321Z,60.52
2023-03-17T20:56:53.683Z,63.38
2023-03-17T20:59:21.556Z,63.59
2023-03-17T21:01:49.934Z,63.21
2023-03-17T21:04:20.852Z,64.48
2023-03-17T21:06:49.761Z,62.16
2023-03-17T21:09:17.709Z,60.78
2023-03-17T21:11:47.930Z,63.92
2023-03-17T21:14:16.469Z,62.89
2023-03-17T21:16:45.087Z,61.29
2023-03-17T21:19:15.270Z,61.04
2023-03-17T21:21:43.127Z,61.76
2023-03-17T21:24:25.734Z,62.42
2023-03-17T21:26:55.007Z,62.04
2023-03-17T21:29:23.406Z,61.80
2023-03-17T21:31:51.516Z,63.32
2023-03-17T21:34:19.892Z,63.86
2023-03-17T21:36:47.890Z,63.80
2023-03-17T21:39:16.189Z,64.32
2023-03-17T21:41:44.898Z,64.94
2023-03-17T21:44:15.911Z,65.61
2023-03-17T21:46:43.913Z,67.25
2023-03-17T21:49:13.147Z,66.87
2023-03-17T21:51:41.346Z,66.68
2023-03-17T21:54:09.648Z,66.47
2023-03-17T21:56:38.543Z,64.37
2023-03-17T21:59:07.622Z,66.74
2023-03-17T22:01:36.880Z,68.03
2023-03-17T22:04:04.795Z,68.30
2023-03-17T22:06:32.693Z,65.86
2023-03-17T22:09:00.550Z,69.14
2023-03-17T22:11:28.430Z,69.04
2023-03-17T22:13:57.178Z,67.46
2023-03-17T22:16:25.578Z,69.26
2023-03-17T22:18:54.986Z,70.74
2023-03-17T22:21:23.512Z,70.33
2023-03-17T22:23:51.738Z,69.62
2023-03-17T22:26:21.409Z,70.00
2023-03-17T22:28:50.800Z,69.97
2023-03-17T22:31:21.247Z,67.75
2023-03-17T22:33:50.081Z,69.85
2023-03-17T22:36:19.942Z,67.87
2023-03-17T22:38:48.819Z,68.29
2023-03-17T22:41:19.307Z,65.34
2023-03-17T22:43:47.959Z,65.45
2023-03-17T22:46:17.121Z,67.10
2023-03-17T22:48:46.192Z,66.15
2023-03-17T22:51:16.873Z,67.12
2023-03-17T22:53:46.718Z,67.14
2023-03-17T22:56:16.427Z,66.76
2023-03-17T22:58:44.737Z,68.55
2023-03-17T23:01:15.138Z,67.94
2023-03-17T23:03:43.629Z,67.31
2023-03-17T23:06:13.129Z,68.79
2023-03-17T23:08:42.769Z,67.61
2023-03-17T23:11:13.857Z,67.90
2023-03-17T23:13:42.235Z,64.35
2023-03-17T23:16:10.954Z,67.22
2023-03-17T23:18:38.765Z,66.43
2023-03-17T23:21:08.754Z,68.01
2023-03-17T23:23:38.066Z,65.21
2023-03-17T23:26:06.294Z,64.94
2023-03-17T23:28:36.027Z,65.96
2023-03-17T23:31:04.374Z,65.38
2023-03-17T23:33:32.269Z,64.41
2023-03-17T23:36:00.461Z,65.89
2023-03-17T23:38:28.684Z,67.24
2023-03-17T23:40:57.571Z,66.86
2023-03-17T23:43:25.990Z,64.65
2023-03-17T23:45:55.756Z,61.73
2023-03-17T23:48:23.708Z,62.96
2023-03-17T23:50:53.482Z,63.63
2023-03-17T23:53:21.992Z,63.76
2023-03-17T23:55:51.431Z,66.05
2023-03-17T23:58:19.518Z,64.38
